Time;durP1;ratioP1;P1;durP2;ratioP2;P2;SDS_P1;SDS_P2;PMS_P1;PMS_P2;Temp;Humidity;BMP_temperature;BMP_pressure;BME280_temperature;BME280_humidity;BME280_pressure;Samples;Min_cycle;Max_cycle;Signal;HPM_P1;HPM_P2
2023/08/21 00:01:52;;;;;;;4.93;4.53;;;26.10;69.20;;;;;;5054773;28;20059;-35
2023/08/21 00:04:18;;;;;;;4.80;4.40;;;26.10;69.40;;;;;;5054358;28;20039;-35
2023/08/21 00:06:44;;;;;;;4.22;3.92;;;26.10;69.50;;;;;;5033006;28;20025;-35
2023/08/21 00:09:10;;;;;;;4.53;4.23;;;26.10;69.60;;;;;;5057997;28;20029;-35
2023/08/21 00:11:37;;;;;;;4.70;4.30;;;26.10;69.80;;;;;;5054165;28;20144;-35
2023/08/21 00:14:03;;;;;;;4.87;4.47;;;26.10;69.80;;;;;;5061641;28;20051;-35
2023/08/21 00:16:29;;;;;;;4.70;4.30;;;26.10;69.80;;;;;;5053592;28;20493;-35
2023/08/21 00:18:56;;;;;;;4.68;4.30;;;26.10;70.00;;;;;;5059164;28;20298;-35
2023/08/21 00:21:22;;;;;;;4.95;4.55;;;26.20;70.10;;;;;;5060598;28;20044;-35
2023/08/21 00:23:48;;;;;;;4.70;4.30;;;26.20;70.20;;;;;;5056173;28;20062;-35
2023/08/21 00:26:14;;;;;;;5.30;4.90;;;26.20;70.20;;;;;;5054800;28;20311;-35
2023/08/21 00:28:40;;;;;;;5.03;4.63;;;26.20;70.30;;;;;;5060829;28;20036;-35
2023/08/21 00:31:06;;;;;;;4.63;4.22;;;26.20;70.40;;;;;;5051114;28;20360;-35
2023/08/21 00:33:33;;;;;;;5.03;4.63;;;26.20;70.40;;;;;;5055725;28;20417;-35
2023/08/21 00:35:59;;;;;;;4.65;4.35;;;26.20;70.40;;;;;;5049561;28;20283;-35
2023/08/21 00:38:26;;;;;;;5.10;4.70;;;26.20;70.50;;;;;;5058760;28;20037;-35
2023/08/21 00:40:52;;;;;;;4.88;4.47;;;26.20;70.60;;;;;;5056932;28;20100;-35
2023/08/21 00:43:19;;;;;;;5.22;4.82;;;26.20;70.60;;;;;;5051138;28;20104;-35
2023/08/21 00:45:45;;;;;;;5.07;4.68;;;26.30;70.70;;;;;;5054400;28;20083;-35
2023/08/21 00:48:12;;;;;;;5.25;4.85;;;26.20;70.60;;;;;;5035767;28;20033;-35
2023/08/21 00:50:38;;;;;;;5.35;4.95;;;26.30;70.70;;;;;;5033640;28;20032;-35
2023/08/21 00:53:04;;;;;;;5.53;5.13;;;26.20;70.70;;;;;;5036388;28;20041;-36
2023/08/21 00:55:31;;;;;;;4.70;4.30;;;26.20;70.70;;;;;;5053294;28;20033;-35
2023/08/21 00:57:57;;;;;;;5.07;4.70;;;26.20;70.70;;;;;;5060463;28;20286;-35
2023/08/21 01:00:24;;;;;;;5.28;4.88;;;26.20;70.80;;;;;;5035023;28;20035;-35
2023/08/21 01:02:50;;;;;;;5.32;4.82;;;26.20;70.80;;;;;;5039351;28;20037;-35
2023/08/21 01:05:18;;;;;;;5.20;4.80;;;26.20;70.90;;;;;;5050692;28;20034;-35
2023/08/21 01:07:52;;;;;;;5.53;5.05;;;26.30;71.00;;;;;;5053939;28;20037;-35
2023/08/21 01:10:26;;;;;;;5.10;4.70;;;26.30;71.10;;;;;;5041836;28;20024;-35
2023/08/21 01:13:03;;;;;;;5.60;5.20;;;26.30;71.10;;;;;;5054976;28;20036;-35
2023/08/21 01:15:29;;;;;;;6.07;5.57;;;26.30;71.00;;;;;;5042189;28;20033;-35
2023/08/21 01:17:55;;;;;;;5.77;5.37;;;26.30;71.10;;;;;;5060885;28;20142;-35
2023/08/21 01:20:21;;;;;;;5.80;5.33;;;26.30;71.10;;;;;;5046866;28;20029;-35
2023/08/21 01:22:48;;;;;;;5.57;5.18;;;26.30;71.20;;;;;;5048955;28;20025;-35
2023/08/21 01:25:16;;;;;;;5.55;5.15;;;26.30;71.20;;;;;;5046754;28;20037;-35
2023/08/21 01:27:44;;;;;;;5.57;5.18;;;26.30;71.10;;;;;;5053131;28;20064;-36
2023/08/21 01:30:10;;;;;;;5.82;5.40;;;26.30;71.00;;;;;;5055988;28;20735;-36
2023/08/21 01:32:51;;;;;;;6.55;6.05;;;26.30;70.90;;;;;;5033650;28;20033;-35
2023/08/21 01:35:17;;;;;;;6.50;6.00;;;26.30;71.00;;;;;;5047387;28;20510;-34
2023/08/21 01:37:43;;;;;;;6.88;6.28;;;26.30;71.10;;;;;;5026197;28;20080;-35
2023/08/21 01:40:10;;;;;;;6.67;6.13;;;26.30;71.10;;;;;;5025573;28;20057;-35
2023/08/21 01:42:36;;;;;;;6.50;6.00;;;26.30;71.30;;;;;;5045658;28;20380;-35
2023/08/21 01:45:02;;;;;;;6.60;6.10;;;26.30;71.20;;;;;;5056045;28;20038;-35
2023/08/21 01:47:29;;;;;;;6.78;6.25;;;26.30;71.20;;;;;;5064337;28;20048;-34
2023/08/21 01:49:55;;;;;;;7.35;6.65;;;26.30;71.30;;;;;;5059815;28;20061;-35
2023/08/21 01:52:21;;;;;;;6.53;6.03;;;26.30;71.30;;;;;;5061178;28;20029;-34
2023/08/21 01:54:49;;;;;;;6.70;6.20;;;26.30;71.40;;;;;;5052965;28;20033;-35
2023/08/21 01:57:15;;;;;;;6.15;5.65;;;26.30;71.50;;;;;;5033580;28;20449;-34
2023/08/21 01:59:41;;;;;;;6.03;5.53;;;26.20;71.40;;;;;;5056970;28;20060;-35
2023/08/21 02:02:08;;;;;;;6.30;5.80;;;26.20;71.40;;;;;;5057772;28;20100;-35
2023/08/21 02:04:34;;;;;;;6.40;5.80;;;26.20;71.50;;;;;;5060983;28;20067;-35
2023/08/21 02:07:00;;;;;;;6.63;6.10;;;26.30;71.40;;;;;;5047095;28;20064;-34
2023/08/21 02:09:26;;;;;;;5.93;5.53;;;26.30;71.30;;;;;;5047965;28;20037;-35
2023/08/21 02:11:52;;;;;;;6.93;6.33;;;26.30;71.30;;;;;;5047178;28;20045;-34
2023/08/21 02:14:19;;;;;;;5.85;5.45;;;26.20;71.20;;;;;;5062483;28;20063;-35
2023/08/21 02:16:45;;;;;;;6.50;6.00;;;26.20;71.10;;;;;;5054194;28;20030;-35
2023/08/21 02:19:11;;;;;;;6.40;5.90;;;26.30;71.20;;;;;;5042080;28;20029;-34
2023/08/21 02:21:37;;;;;;;6.40;5.90;;;26.20;71.20;;;;;;5063138;28;20033;-35
2023/08/21 02:24:03;;;;;;;6.80;6.30;;;26.20;71.30;;;;;;5056127;28;20041;-35
2023/08/21 02:26:30;;;;;;;6.63;6.03;;;26.20;71.20;;;;;;5053628;28;20037;-35
2023/08/21 02:28:57;;;;;;;6.27;5.80;;;26.20;71.30;;;;;;5054778;28;20040;-35
2023/08/21 02:31:23;;;;;;;6.10;5.60;;;26.20;71.30;;;;;;5050857;28;20037;-34
2023/08/21 02:33:49;;;;;;;6.30;5.80;;;26.20;71.50;;;;;;5049387;28;20874;-35
2023/08/21 02:36:16;;;;;;;6.43;5.93;;;26.20;71.60;;;;;;5049862;28;20033;-35
2023/08/21 02:38:42;;;;;;;6.13;5.65;;;26.20;71.50;;;;;;5052506;28;20870;-35
2023/08/21 02:41:08;;;;;;;6.53;6.03;;;26.20;72.30;;;;;;5049349;28;20033;-35
2023/08/21 02:43:35;;;;;;;5.63;5.22;;;26.20;71.70;;;;;;5050045;28;20039;-35
2023/08/21 02:46:01;;;;;;;6.07;5.57;;;26.20;71.60;;;;;;5047021;28;20036;-34
2023/08/21 02:48:27;;;;;;;6.30;5.80;;;26.20;71.40;;;;;;5049491;28;20033;-35
2023/08/21 02:50:53;;;;;;;6.30;5.70;;;26.20;71.40;;;;;;5046598;28;20959;-34
2023/08/21 02:53:20;;;;;;;6.00;5.50;;;26.20;71.40;;;;;;5048410;28;20040;-35
2023/08/21 02:55:46;;;;;;;5.88;5.38;;;26.20;71.20;;;;;;5052442;28;20044;-34
2023/08/21 02:58:12;;;;;;;6.30;5.70;;;26.10;71.20;;;;;;5049767;28;20510;-35
2023/08/21 03:00:38;;;;;;;5.70;5.27;;;26.20;71.20;;;;;;5064698;28;20052;-35
2023/08/21 03:03:04;;;;;;;6.20;5.70;;;26.20;71.30;;;;;;5068719;28;20024;-35
2023/08/21 03:05:31;;;;;;;5.88;5.40;;;26.10;71.10;;;;;;5073643;28;20100;-35
2023/08/21 03:07:57;;;;;;;5.70;5.30;;;26.10;71.20;;;;;;5063936;28;20037;-35
2023/08/21 03:10:23;;;;;;;5.75;5.32;;;26.20;71.50;;;;;;5062826;28;20281;-35
2023/08/21 03:12:49;;;;;;;5.38;4.97;;;26.10;71.40;;;;;;5070032;28;20048;-35
2023/08/21 03:15:16;;;;;;;5.40;5.00;;;26.10;71.60;;;;;;5052512;28;20032;-34
2023/08/21 03:17:42;;;;;;;5.80;5.40;;;26.10;71.50;;;;;;5063229;28;20145;-34
2023/08/21 03:20:08;;;;;;;5.80;5.40;;;26.10;71.60;;;;;;5063542;28;20033;-35
2023/08/21 03:22:34;;;;;;;5.72;5.22;;;26.10;71.60;;;;;;5062971;28;20040;-34
2023/08/21 03:25:00;;;;;;;5.53;5.13;;;26.10;71.70;;;;;;5057016;28;20089;-35
2023/08/21 03:27:26;;;;;;;5.57;5.17;;;26.10;71.50;;;;;;5062322;28;20089;-35
2023/08/21 03:29:53;;;;;;;5.67;5.23;;;26.10;71.50;;;;;;5053972;28;20041;-34
2023/08/21 03:32:19;;;;;;;5.70;5.30;;;26.10;71.70;;;;;;5043954;28;20033;-35
2023/08/21 03:34:45;;;;;;;5.80;5.30;;;26.10;71.60;;;;;;5042515;28;20060;-35
2023/08/21 03:37:11;;;;;;;5.10;4.70;;;26.10;71.60;;;;;;5041062;28;20048;-35
2023/08/21 03:39:38;;;;;;;5.43;5.03;;;26.10;71.60;;;;;;5042707;28;20033;-34
2023/08/21 03:42:05;;;;;;;5.40;5.00;;;26.10;71.70;;;;;;5043471;28;20067;-35
2023/08/21 03:44:31;;;;;;;5.18;4.78;;;26.10;71.80;;;;;;5026754;28;21375;-35
2023/08/21 03:46:57;;;;;;;6.03;5.53;;;26.10;71.70;;;;;;5045473;28;20673;-34
2023/08/21 03:49:23;;;;;;;5.07;4.67;;;26.00;71.60;;;;;;5045987;28;20052;-38
2023/08/21 03:51:49;;;;;;;5.50;5.10;;;26.00;71.50;;;;;;5045805;28;20036;-35
2023/08/21 03:54:16;;;;;;;5.33;4.93;;;26.10;71.70;;;;;;5038627;28;20034;-35
2023/08/21 03:56:42;;;;;;;5.70;5.22;;;26.00;71.40;;;;;;5041013;28;20705;-34
2023/08/21 03:59:08;;;;;;;5.75;5.35;;;26.00;71.30;;;;;;5038802;28;20132;-35
2023/08/21 04:01:34;;;;;;;5.10;4.60;;;26.00;71.40;;;;;;5059299;28;20038;-35
2023/08/21 04:04:00;;;;;;;5.65;5.20;;;26.00;71.20;;;;;;5061673;28;20032;-34
2023/08/21 04:06:26;;;;;;;5.78;5.28;;;26.00;71.30;;;;;;5060489;28;20033;-34
2023/08/21 04:08:52;;;;;;;5.47;4.97;;;26.00;71.30;;;;;;5060803;28;20036;-34
2023/08/21 04:11:18;;;;;;;5.77;5.37;;;26.00;71.40;;;;;;5059997;28;20025;-35
2023/08/21 04:13:44;;;;;;;5.22;4.82;;;26.00;71.40;;;;;;5061465;28;20048;-35
2023/08/21 04:16:12;;;;;;;5.60;5.20;;;26.00;71.40;;;;;;5054308;28;20036;-34
2023/08/21 04:18:38;;;;;;;;;;;26.00;71.40;;;;;;5053760;28;20048;-34
2023/08/21 04:21:04;;;;;;;5.35;4.85;;;25.90;71.10;;;;;;5054298;28;19924;-34
2023/08/21 04:23:31;;;;;;;5.00;4.68;;;26.00;71.30;;;;;;5058928;28;20132;-35
2023/08/21 04:26:03;;;;;;;4.97;4.68;;;26.00;71.30;;;;;;5061242;28;20041;-34
2023/08/21 04:28:33;;;;;;;5.40;4.90;;;26.00;71.20;;;;;;5060201;28;20048;-34
2023/08/21 04:30:59;;;;;;;5.57;5.07;;;26.00;71.10;;;;;;5048966;28;20037;-34
2023/08/21 04:33:26;;;;;;;5.23;4.83;;;26.00;71.30;;;;;;5054813;28;20057;-34
2023/08/21 04:35:52;;;;;;;;;;;25.90;71.10;;;;;;5033185;28;20038;-34
2023/08/21 04:38:18;;;;;;;5.15;4.75;;;25.90;71.00;;;;;;5039093;28;20377;-34
2023/08/21 04:40:44;;;;;;;5.30;4.90;;;25.90;71.10;;;;;;5043712;28;20033;-35
2023/08/21 04:43:10;;;;;;;4.78;4.38;;;25.90;71.10;;;;;;5050531;28;20058;-35
2023/08/21 04:45:37;;;;;;;5.25;4.82;;;25.90;71.10;;;;;;5047710;28;20043;-34
2023/08/21 04:48:05;;;;;;;4.70;4.40;;;25.90;71.10;;;;;;5063659;28;20377;-36
2023/08/21 04:50:31;;;;;;;5.07;4.68;;;25.90;71.10;;;;;;5045037;28;20041;-34
2023/08/21 04:52:57;;;;;;;5.07;4.68;;;25.90;71.10;;;;;;5044687;28;20601;-35
2023/08/21 04:55:24;;;;;;;5.32;4.93;;;25.90;71.10;;;;;;5046040;28;20116;-34
2023/08/21 04:57:50;;;;;;;5.28;4.68;;;25.90;71.10;;;;;;5057014;28;20633;-34
2023/08/21 05:00:16;;;;;;;5.50;5.10;;;25.80;71.10;;;;;;5046415;28;20159;-34
2023/08/21 05:02:42;;;;;;;4.95;4.55;;;25.90;71.40;;;;;;5051529;28;20039;-35
2023/08/21 05:05:09;;;;;;;5.00;4.57;;;25.90;71.70;;;;;;5049357;28;20502;-34
2023/08/21 05:07:35;;;;;;;4.60;4.20;;;25.80;71.80;;;;;;5044646;28;20032;-34
2023/08/21 05:10:01;;;;;;;5.20;4.80;;;25.80;71.70;;;;;;5052670;28;20265;-34
2023/08/21 05:12:28;;;;;;;5.10;4.70;;;25.80;71.90;;;;;;5045138;28;20057;-35
2023/08/21 05:14:54;;;;;;;5.27;4.80;;;25.80;72.00;;;;;;5052323;28;20101;-35
2023/08/21 05:17:20;;;;;;;4.97;4.57;;;25.80;71.90;;;;;;5050857;28;20128;-35
2023/08/21 05:19:46;;;;;;;5.27;4.80;;;25.80;71.80;;;;;;5048674;28;20273;-35
2023/08/21 05:22:12;;;;;;;5.50;5.10;;;25.80;71.50;;;;;;5049150;28;20357;-35
2023/08/21 05:24:38;;;;;;;5.05;4.50;;;25.80;71.50;;;;;;5050341;28;20121;-35
2023/08/21 05:27:05;;;;;;;5.30;4.70;;;25.80;71.50;;;;;;5055942;28;20034;-35
2023/08/21 05:29:31;;;;;;;4.80;4.50;;;25.80;71.50;;;;;;5057865;28;20036;-34
2023/08/21 05:31:57;;;;;;;5.63;5.13;;;25.80;71.40;;;;;;5052235;28;20498;-34
2023/08/21 05:34:25;;;;;;;5.00;4.60;;;25.70;71.30;;;;;;5063576;28;20045;-35
2023/08/21 05:36:54;;;;;;;5.22;4.82;;;25.70;71.70;;;;;;5064444;28;20021;-34
2023/08/21 05:39:20;;;;;;;4.95;4.55;;;25.70;71.40;;;;;;5056689;28;20038;-35
2023/08/21 05:41:46;;;;;;;5.55;5.15;;;25.70;71.40;;;;;;5052472;28;20032;-34
2023/08/21 05:44:12;;;;;;;5.00;4.60;;;25.70;71.40;;;;;;5057430;28;20033;-35
2023/08/21 05:46:39;;;;;;;5.57;5.18;;;25.70;71.60;;;;;;5054459;28;20033;-34
2023/08/21 05:49:05;;;;;;;4.77;4.37;;;25.70;71.70;;;;;;5051337;28;20033;-34
2023/08/21 05:51:31;;;;;;;5.30;4.90;;;25.70;71.80;;;;;;5048736;28;20033;-34
2023/08/21 05:53:57;;;;;;;4.70;4.40;;;25.70;71.80;;;;;;5058780;28;20039;-34
2023/08/21 05:56:23;;;;;;;5.47;4.90;;;25.70;71.80;;;;;;5058433;28;20512;-34
2023/08/21 05:58:49;;;;;;;5.30;4.88;;;25.60;71.90;;;;;;5054926;28;20029;-34
2023/08/21 06:01:15;;;;;;;4.72;4.43;;;25.70;71.70;;;;;;5061375;28;20029;-34
2023/08/21 06:03:43;;;;;;;5.13;4.73;;;25.60;71.60;;;;;;5045862;28;20057;-35
2023/08/21 06:06:09;;;;;;;5.65;5.15;;;25.60;71.50;;;;;;5057660;28;20029;-35
2023/08/21 06:08:35;;;;;;;5.00;4.60;;;25.60;71.70;;;;;;5056175;28;20029;-34
2023/08/21 06:11:01;;;;;;;5.07;4.68;;;25.60;71.60;;;;;;5056954;28;20037;-34
2023/08/21 06:13:27;;;;;;;4.93;4.53;;;25.60;71.60;;;;;;5055667;28;20136;-34
2023/08/21 06:15:54;;;;;;;4.90;4.50;;;25.60;71.70;;;;;;5062719;28;20039;-35
2023/08/21 06:18:20;;;;;;;5.60;5.18;;;25.60;71.60;;;;;;5066449;28;20037;-34
2023/08/21 06:20:46;;;;;;;5.28;4.88;;;25.60;71.70;;;;;;5063237;28;20039;-35
2023/08/21 06:23:12;;;;;;;5.13;4.73;;;25.60;71.80;;;;;;5056193;28;20037;-34
2023/08/21 06:25:38;;;;;;;5.20;4.80;;;25.60;71.90;;;;;;5060601;28;20025;-34
2023/08/21 06:28:05;;;;;;;5.40;5.00;;;25.60;72.00;;;;;;5063581;28;20041;-35
2023/08/21 06:30:31;;;;;;;5.10;4.70;;;25.60;71.90;;;;;;5054568;28;20056;-34
2023/08/21 06:32:57;;;;;;;5.00;4.60;;;25.60;72.10;;;;;;5054531;28;20071;-34
2023/08/21 06:35:23;;;;;;;5.25;4.85;;;25.50;72.00;;;;;;5062100;28;20065;-34
2023/08/21 06:37:49;;;;;;;5.00;4.60;;;25.60;72.20;;;;;;5058598;28;20144;-34
2023/08/21 06:40:35;;;;;;;5.70;5.20;;;25.60;72.10;;;;;;5045631;28;20097;-35
2023/08/21 06:43:03;;;;;;;5.05;4.65;;;25.50;71.90;;;;;;4963283;29;20103;-35
2023/08/21 06:45:30;;;;;;;5.10;4.70;;;25.50;72.00;;;;;;4963473;28;20043;-34
2023/08/21 06:47:56;;;;;;;;;;;25.50;72.10;;;;;;4963665;29;20047;-34
2023/08/21 06:50:22;;;;;;;5.40;4.90;;;25.50;72.00;;;;;;4963169;29;19970;-34
2023/08/21 06:52:48;;;;;;;5.32;4.88;;;25.50;71.90;;;;;;4963346;29;20035;-35
2023/08/21 06:55:14;;;;;;;5.40;4.90;;;25.50;72.00;;;;;;4962926;29;20075;-35
2023/08/21 06:57:41;;;;;;;5.17;4.77;;;25.50;72.80;;;;;;4955853;29;20050;-34
2023/08/21 07:00:07;;;;;;;5.03;4.63;;;25.40;72.10;;;;;;4968046;28;20035;-35
2023/08/21 07:02:33;;;;;;;5.45;4.95;;;25.50;72.30;;;;;;4963371;28;20050;-35
2023/08/21 07:05:00;;;;;;;4.53;4.22;;;25.40;72.10;;;;;;4966177;28;20043;-34
2023/08/21 07:07:26;;;;;;;5.37;4.97;;;25.40;72.20;;;;;;4962378;28;20074;-35
2023/08/21 07:09:52;;;;;;;5.27;4.87;;;25.40;72.30;;;;;;4965041;28;20034;-34
2023/08/21 07:12:18;;;;;;;5.20;4.80;;;25.40;72.30;;;;;;4964298;28;20552;-34
2023/08/21 07:14:44;;;;;;;5.80;5.30;;;25.40;72.30;;;;;;4962857;28;20055;-35
2023/08/21 07:17:10;;;;;;;5.20;4.80;;;25.40;72.40;;;;;;4959456;28;20041;-35
2023/08/21 07:19:37;;;;;;;5.32;4.82;;;25.40;72.30;;;;;;4990545;28;20114;-35
2023/08/21 07:22:03;;;;;;;4.90;4.50;;;25.40;72.50;;;;;;5048501;28;20029;-35
2023/08/21 07:24:29;;;;;;;4.60;4.30;;;25.40;72.50;;;;;;5047688;28;20277;-34
2023/08/21 07:26:55;;;;;;;4.70;4.40;;;25.40;72.30;;;;;;5048360;28;20033;-34
2023/08/21 07:29:21;;;;;;;6.00;5.40;;;25.40;72.40;;;;;;5049121;28;20021;-34
2023/08/21 07:31:47;;;;;;;5.30;4.90;;;25.40;72.30;;;;;;5051457;28;20037;-35
2023/08/21 07:34:13;;;;;;;5.45;4.95;;;25.30;72.30;;;;;;5051591;28;20045;-34
2023/08/21 07:36:39;;;;;;;5.23;4.83;;;25.30;72.30;;;;;;5056429;28;20033;-34
2023/08/21 07:39:05;;;;;;;5.50;5.00;;;25.40;72.60;;;;;;5062528;28;20029;-35
2023/08/21 07:41:32;;;;;;;5.50;5.00;;;25.30;72.40;;;;;;5053551;28;20066;-35
2023/08/21 07:43:58;;;;;;;4.97;4.57;;;25.30;72.40;;;;;;5055531;28;20097;-35
2023/08/21 07:46:24;;;;;;;5.80;5.30;;;25.30;72.40;;;;;;5059922;28;20112;-34
2023/08/21 07:48:50;;;;;;;5.60;5.10;;;25.30;72.60;;;;;;5056535;28;20025;-34
2023/08/21 07:51:16;;;;;;;5.70;5.20;;;25.30;72.50;;;;;;5055284;28;20100;-34
2023/08/21 07:53:42;;;;;;;5.27;4.87;;;25.30;72.60;;;;;;5052165;28;20691;-34
2023/08/21 07:56:09;;;;;;;5.80;5.30;;;25.30;72.60;;;;;;5057612;28;20040;-35
2023/08/21 07:58:35;;;;;;;5.80;5.20;;;25.20;72.60;;;;;;5047814;28;20031;-35
2023/08/21 08:01:01;;;;;;;5.35;4.90;;;25.30;72.60;;;;;;5027959;28;20048;-35
2023/08/21 08:03:27;;;;;;;5.30;4.90;;;25.30;72.70;;;;;;5049170;28;20044;-34
2023/08/21 08:05:53;;;;;;;5.47;4.97;;;25.30;72.80;;;;;;5050320;28;20274;-35
2023/08/21 08:08:19;;;;;;;5.40;5.00;;;25.20;72.60;;;;;;5047936;28;20069;-40
2023/08/21 08:10:45;;;;;;;5.25;4.80;;;25.20;72.60;;;;;;5052405;28;20049;-35
2023/08/21 08:13:12;;;;;;;5.50;5.10;;;25.20;72.60;;;;;;5048473;28;20045;-35
2023/08/21 08:15:38;;;;;;;5.87;5.37;;;25.20;72.60;;;;;;5041852;28;20033;-34
2023/08/21 08:18:07;;;;;;;5.20;4.80;;;25.20;72.60;;;;;;5053009;28;20143;-34
2023/08/21 08:20:33;;;;;;;5.78;5.28;;;25.20;72.60;;;;;;5044414;28;20072;-35
2023/08/21 08:22:59;;;;;;;5.67;5.20;;;25.20;72.70;;;;;;5047833;28;20064;-35
2023/08/21 08:25:25;;;;;;;5.03;4.63;;;25.20;72.70;;;;;;5050822;28;20541;-35
2023/08/21 08:27:52;;;;;;;5.47;5.07;;;25.20;73.40;;;;;;5048909;28;20060;-35
2023/08/21 08:30:18;;;;;;;5.30;4.90;;;25.20;72.80;;;;;;5034728;28;21125;-35
2023/08/21 08:32:47;;;;;;;5.23;4.83;;;25.20;72.80;;;;;;5028042;28;20051;-34
2023/08/21 08:35:14;;;;;;;5.40;5.00;;;25.20;72.70;;;;;;5053605;28;20542;-35
2023/08/21 08:37:41;;;;;;;5.30;4.90;;;25.20;72.90;;;;;;5044339;28;20037;-35
2023/08/21 08:40:08;;;;;;;5.35;4.95;;;25.20;72.80;;;;;;5050792;28;20037;-35
2023/08/21 08:42:35;;;;;;;5.25;4.85;;;25.20;72.90;;;;;;5051301;28;20036;-35
2023/08/21 08:45:03;;;;;;;5.32;4.93;;;25.20;72.80;;;;;;5054772;28;20037;-35
2023/08/21 08:47:39;;;;;;;5.70;5.20;;;25.10;72.80;;;;;;5028925;28;20052;-35
2023/08/21 08:50:06;;;;;;;5.30;4.90;;;25.10;72.80;;;;;;5037759;28;20032;-35
2023/08/21 08:52:38;;;;;;;;;;;25.10;72.90;;;;;;5059851;28;20041;-35
2023/08/21 08:55:06;;;;;;;5.55;5.10;;;25.10;72.80;;;;;;5035476;28;19949;-34
2023/08/21 08:57:33;;;;;;;5.70;5.20;;;25.10;72.90;;;;;;5055978;28;20049;-35
2023/08/21 08:59:59;;;;;;;;;;;25.10;72.80;;;;;;5054609;28;20037;-35
2023/08/21 09:02:28;;;;;;;5.53;5.13;;;25.10;72.90;;;;;;5055485;28;19944;-35
2023/08/21 09:04:55;;;;;;;5.90;5.40;;;25.10;72.90;;;;;;5054930;28;20092;-35
2023/08/21 09:07:21;;;;;;;5.90;5.40;;;25.10;72.90;;;;;;5055084;28;20095;-35
2023/08/21 09:09:52;;;;;;;5.20;4.80;;;25.10;73.00;;;;;;5040605;28;20078;-35
2023/08/21 09:12:18;;;;;;;5.70;5.07;;;25.00;73.00;;;;;;5039647;28;20036;-36
2023/08/21 09:14:45;;;;;;;5.88;5.13;;;25.00;73.00;;;;;;5037124;28;20072;-35
2023/08/21 09:17:11;;;;;;;5.35;4.95;;;25.00;73.00;;;;;;5057599;28;20044;-34
2023/08/21 09:19:37;;;;;;;6.00;5.40;;;25.00;73.00;;;;;;5063923;28;20033;-35
2023/08/21 09:22:22;;;;;;;5.38;4.97;;;25.00;73.00;;;;;;5064855;28;20137;-35
2023/08/21 09:25:14;;;;;;;4.95;4.55;;;25.00;72.90;;;;;;5055734;28;20405;-35
2023/08/21 09:27:40;;;;;;;5.50;5.10;;;25.00;73.00;;;;;;5052916;28;20063;-35
2023/08/21 09:30:12;;;;;;;5.40;5.00;;;25.00;73.10;;;;;;5065208;28;20020;-35
2023/08/21 09:32:59;;;;;;;6.15;5.65;;;25.00;73.10;;;;;;5039783;28;20057;-35
2023/08/21 09:35:26;;;;;;;5.50;5.00;;;25.00;73.00;;;;;;5056683;28;20064;-34
2023/08/21 09:37:55;;;;;;;5.55;5.05;;;25.00;73.10;;;;;;5056555;28;20033;-35
2023/08/21 09:40:24;;;;;;;5.85;5.35;;;25.00;73.20;;;;;;5066828;28;20033;-35
2023/08/21 09:42:54;;;;;;;5.38;4.97;;;25.00;73.20;;;;;;5065334;28;20025;-35
2023/08/21 09:45:24;;;;;;;5.85;4.88;;;25.00;73.10;;;;;;5047833;28;20367;-35
2023/08/21 09:47:53;;;;;;;5.53;5.13;;;25.00;73.20;;;;;;5068903;28;20021;-35
2023/08/21 09:50:19;;;;;;;5.18;4.78;;;24.90;73.10;;;;;;5050716;28;20064;-35
2023/08/21 09:52:46;;;;;;;5.80;5.30;;;24.90;73.20;;;;;;5056470;28;20096;-35
2023/08/21 09:55:15;;;;;;;5.70;5.30;;;24.90;73.30;;;;;;5058268;28;20052;-35
2023/08/21 09:57:41;;;;;;;5.88;5.40;;;24.90;73.20;;;;;;5051068;28;20520;-35
2023/08/21 10:00:15;;;;;;;5.50;5.10;;;24.90;73.20;;;;;;5066875;28;20029;-35
2023/08/21 10:02:47;;;;;;;5.22;4.82;;;24.90;73.20;;;;;;5064646;28;20044;-35
2023/08/21 10:05:15;;;;;;;5.18;4.78;;;24.90;73.40;;;;;;5072040;28;20024;-34
2023/08/21 10:07:42;;;;;;;5.53;5.05;;;24.90;73.30;;;;;;5075855;28;20057;-35
2023/08/21 10:10:09;;;;;;;5.50;5.07;;;24.90;73.20;;;;;;5067765;28;20092;-35
2023/08/21 10:12:35;;;;;;;5.15;4.75;;;24.90;73.20;;;;;;5066670;28;20040;-35
2023/08/21 10:15:01;;;;;;;5.78;5.28;;;24.90;73.20;;;;;;5080981;28;20111;-35
2023/08/21 10:17:28;;;;;;;5.53;5.03;;;24.90;73.20;;;;;;5057284;28;20041;-35
2023/08/21 10:19:54;;;;;;;5.43;5.03;;;24.80;74.00;;;;;;5046811;28;20098;-35
2023/08/21 10:22:58;;;;;;;5.03;4.63;;;24.80;73.30;;;;;;5064719;28;20036;-35
2023/08/21 10:25:27;;;;;;;5.57;5.07;;;24.80;73.40;;;;;;5069300;28;20051;-35
2023/08/21 10:27:55;;;;;;;5.32;4.85;;;24.80;73.40;;;;;;5071919;28;20494;-35
2023/08/21 10:30:24;;;;;;;5.30;4.90;;;24.80;73.40;;;;;;5062984;28;20024;-35
2023/08/21 10:32:54;;;;;;;5.50;5.10;;;24.80;73.40;;;;;;5070656;28;20040;-35
2023/08/21 10:35:22;;;;;;;5.78;5.32;;;24.80;73.40;;;;;;5062374;28;20518;-35
2023/08/21 10:38:07;;;;;;;5.20;4.80;;;24.80;73.40;;;;;;5056221;28;20131;-35
2023/08/21 10:40:34;;;;;;;5.53;5.13;;;24.80;73.40;;;;;;5054621;28;20033;-35
2023/08/21 10:43:00;;;;;;;5.22;4.82;;;24.80;73.40;;;;;;5063139;28;20040;-35
2023/08/21 10:45:26;;;;;;;5.07;4.68;;;24.80;73.40;;;;;;5061659;28;20039;-35
2023/08/21 10:47:52;;;;;;;5.37;4.97;;;24.80;73.30;;;;;;5052945;28;20108;-35
2023/08/21 10:50:19;;;;;;;4.95;4.57;;;24.80;74.20;;;;;;5053119;28;20032;-35
2023/08/21 10:52:45;;;;;;;5.80;5.30;;;24.70;73.30;;;;;;5055912;28;20077;-35
2023/08/21 10:55:12;;;;;;;5.20;4.70;;;24.80;73.40;;;;;;5055787;28;20029;-35
2023/08/21 10:57:41;;;;;;;5.25;4.85;;;24.80;73.50;;;;;;5044707;28;20050;-34
2023/08/21 11:00:11;;;;;;;5.20;4.80;;;24.70;73.60;;;;;;5050812;28;20064;-35
2023/08/21 11:02:42;;;;;;;5.40;4.95;;;24.70;73.60;;;;;;5061724;28;20067;-35
2023/08/21 11:05:09;;;;;;;5.32;4.85;;;24.70;73.50;;;;;;5062223;28;20033;-35
2023/08/21 11:07:39;;;;;;;5.00;4.60;;;24.70;73.60;;;;;;5062048;28;20047;-35
2023/08/21 11:10:08;;;;;;;5.07;4.68;;;24.70;73.60;;;;;;5062129;28;20029;-35
2023/08/21 11:12:34;;;;;;;5.43;5.03;;;24.70;73.60;;;;;;5055018;28;20037;-35
2023/08/21 11:15:00;;;;;;;5.38;4.88;;;24.70;73.50;;;;;;5037387;28;20047;-35
2023/08/21 11:17:26;;;;;;;5.47;4.97;;;24.70;73.60;;;;;;5054534;28;20037;-35
2023/08/21 11:19:53;;;;;;;5.22;4.82;;;24.70;73.50;;;;;;5062579;28;20071;-35
2023/08/21 11:22:19;;;;;;;5.20;4.80;;;24.70;73.60;;;;;;5057948;28;20735;-35
2023/08/21 11:24:46;;;;;;;5.23;4.83;;;24.70;73.60;;;;;;5058783;28;20059;-35
2023/08/21 11:27:14;;;;;;;5.38;4.97;;;24.70;73.50;;;;;;5051818;28;20093;-35
2023/08/21 11:29:41;;;;;;;5.53;5.03;;;24.60;73.60;;;;;;5036782;28;20041;-35
2023/08/21 11:32:09;;;;;;;5.70;5.20;;;24.60;73.60;;;;;;5061893;28;20588;-34
2023/08/21 11:34:35;;;;;;;5.28;4.78;;;24.60;73.60;;;;;;5061211;28;20091;-35
2023/08/21 11:37:01;;;;;;;5.13;4.63;;;24.60;73.60;;;;;;5062191;28;20111;-35
2023/08/21 11:39:38;;;;;;;5.40;4.95;;;24.60;73.80;;;;;;5054119;28;20029;-35
2023/08/21 11:42:10;;;;;;;4.80;4.40;;;24.60;73.80;;;;;;5045973;28;20055;-35
2023/08/21 11:44:41;;;;;;;5.15;4.75;;;24.60;73.80;;;;;;5061255;28;20025;-35
2023/08/21 11:47:07;;;;;;;5.13;4.72;;;24.60;73.70;;;;;;5048628;28;20036;-35
2023/08/21 11:49:35;;;;;;;5.30;4.90;;;24.60;73.80;;;;;;5045848;28;20037;-35
2023/08/21 11:52:02;;;;;;;5.40;5.00;;;24.60;73.80;;;;;;5049007;28;20132;-35
2023/08/21 11:54:33;;;;;;;5.13;4.73;;;24.60;73.80;;;;;;5053279;28;20047;-35
2023/08/21 11:56:59;;;;;;;5.20;4.80;;;24.60;73.70;;;;;;5049854;28;20032;-35
2023/08/21 11:59:25;;;;;;;5.00;4.60;;;24.60;73.80;;;;;;5053262;28;20044;-35
2023/08/21 12:01:52;;;;;;;4.80;4.40;;;24.60;73.80;;;;;;5044880;28;20025;-35
2023/08/21 12:04:18;;;;;;;5.20;4.80;;;24.60;73.80;;;;;;5045265;28;20096;-35
2023/08/21 12:06:45;;;;;;;5.07;4.68;;;24.60;73.80;;;;;;5052506;28;20286;-35
2023/08/21 12:09:11;;;;;;;;;;;24.50;73.70;;;;;;5051954;28;20065;-35
2023/08/21 12:11:38;;;;;;;5.00;4.60;;;24.50;73.80;;;;;;5051576;28;19924;-34
2023/08/21 12:14:04;;;;;;;;;;;24.50;73.80;;;;;;5046299;28;20041;-34
2023/08/21 12:16:30;;;;;;;4.90;4.50;;;24.50;73.90;;;;;;5048724;28;19909;-34
2023/08/21 12:18:57;;;;;;;4.90;4.40;;;24.50;73.90;;;;;;5051755;28;20029;-34
2023/08/21 12:21:24;;;;;;;5.40;5.00;;;24.50;73.90;;;;;;5051317;28;20041;-34
2023/08/21 12:23:50;;;;;;;5.03;4.63;;;24.50;74.00;;;;;;5056216;28;20061;-34
2023/08/21 12:26:20;;;;;;;5.03;4.63;;;24.50;74.00;;;;;;5061510;28;20036;-34
2023/08/21 12:28:47;;;;;;;5.18;4.78;;;24.50;74.00;;;;;;5050718;28;20083;-34
2023/08/21 12:31:13;;;;;;;5.18;4.78;;;24.50;73.90;;;;;;5058075;28;20671;-34
2023/08/21 12:33:40;;;;;;;5.20;4.80;;;24.50;73.90;;;;;;5046776;28;20056;-34
2023/08/21 12:36:06;;;;;;;4.90;4.50;;;24.50;73.90;;;;;;5048016;28;20064;-34
2023/08/21 12:38:32;;;;;;;5.57;5.07;;;24.50;73.80;;;;;;5051417;28;20032;-34
2023/08/21 12:40:58;;;;;;;5.47;4.97;;;24.50;73.80;;;;;;5050959;28;20044;-34
2023/08/21 12:43:25;;;;;;;5.00;4.60;;;24.50;73.80;;;;;;5043216;28;20083;-34
2023/08/21 12:45:51;;;;;;;5.68;5.18;;;24.50;74.00;;;;;;5046379;28;20289;-34
2023/08/21 12:48:17;;;;;;;4.90;4.60;;;24.50;74.80;;;;;;5058222;28;20110;-34